sensor_id;sensor_type;location;lat;lon;timestamp;pressure;altitude;pressure_sealevel;temperature;humidity
17764;BME280;22245;52.832;13.816;2023-04-16T00:03:07;101313.69;;;10.82;89.99
17764;BME280;22245;52.832;13.816;2023-04-16T00:06:29;101312.72;;;10.83;90.65
17764;BME280;22245;52.832;13.816;2023-04-16T00:09:51;101316.25;;;10.84;90.00
17764;BME280;22245;52.832;13.816;2023-04-16T00:13:12;101318.06;;;10.83;89.92
17764;BME280;22245;52.832;13.816;2023-04-16T00:16:36;101318.78;;;10.85;90.06
17764;BME280;22245;52.832;13.816;2023-04-16T00:19:58;101326.78;;;10.85;89.61
17764;BME280;22245;52.832;13.816;2023-04-16T00:23:21;101322.41;;;10.84;90.26
17764;BME280;22245;52.832;13.816;2023-04-16T00:26:45;101320.00;;;10.81;90.26
17764;BME280;22245;52.832;13.816;2023-04-16T00:30:08;101315.63;;;10.80;90.39
17764;BME280;22245;52.832;13.816;2023-04-16T00:33:31;101322.78;;;10.80;89.95
17764;BME280;22245;52.832;13.816;2023-04-16T00:36:53;101322.03;;;10.78;90.22
17764;BME280;22245;52.832;13.816;2023-04-16T00:40:15;101316.09;;;10.74;91.08
17764;BME280;22245;52.832;13.816;2023-04-16T00:43:37;101321.19;;;10.77;90.59
17764;BME280;22245;52.832;13.816;2023-04-16T00:46:59;101326.78;;;10.74;90.75
17764;BME280;22245;52.832;13.816;2023-04-16T00:50:22;101321.44;;;10.74;90.48
17764;BME280;22245;52.832;13.816;2023-04-16T00:53:44;101323.97;;;10.76;90.06
17764;BME280;22245;52.832;13.816;2023-04-16T00:57:06;101326.41;;;10.79;90.39
17764;BME280;22245;52.832;13.816;2023-04-16T01:00:28;101321.19;;;10.77;90.34
17764;BME280;22245;52.832;13.816;2023-04-16T01:03:50;101321.53;;;10.73;90.13
17764;BME280;22245;52.832;13.816;2023-04-16T01:07:13;101330.41;;;10.73;90.69
17764;BME280;22245;52.832;13.816;2023-04-16T01:10:36;101329.53;;;10.73;90.79
17764;BME280;22245;52.832;13.816;2023-04-16T01:13:58;101328.69;;;10.72;90.49
17764;BME280;22245;52.832;13.816;2023-04-16T01:17:20;101330.41;;;10.73;90.79
17764;BME280;22245;52.832;13.816;2023-04-16T01:20:43;101339.00;;;10.77;91.00
17764;BME280;22245;52.832;13.816;2023-04-16T01:24:06;101337.19;;;10.77;90.25
17764;BME280;22245;52.832;13.816;2023-04-16T01:27:28;101339.13;;;10.75;90.61
17764;BME280;22245;52.832;13.816;2023-04-16T01:30:50;101341.06;;;10.73;90.65
17764;BME280;22245;52.832;13.816;2023-04-16T01:34:21;101336.56;;;10.74;90.12
17764;BME280;22245;52.832;13.816;2023-04-16T01:37:44;101346.38;;;10.73;90.39
17764;BME280;22245;52.832;13.816;2023-04-16T01:41:06;101343.22;;;10.68;90.51
17764;BME280;22245;52.832;13.816;2023-04-16T01:44:28;101349.03;;;10.62;90.44
17764;BME280;22245;52.832;13.816;2023-04-16T01:47:51;101344.88;;;10.57;90.38
17764;BME280;22245;52.832;13.816;2023-04-16T01:51:13;101341.94;;;10.49;90.16
17764;BME280;22245;52.832;13.816;2023-04-16T01:54:36;101348.81;;;10.40;91.06
17764;BME280;22245;52.832;13.816;2023-04-16T01:57:57;101351.78;;;10.36;91.05
17764;BME280;22245;52.832;13.816;2023-04-16T02:01:23;101354.78;;;10.31;91.72
17764;BME280;22245;52.832;13.816;2023-04-16T02:04:45;101355.03;;;10.28;91.53
17764;BME280;22245;52.832;13.816;2023-04-16T02:08:07;101351.53;;;10.27;91.70
17764;BME280;22245;52.832;13.816;2023-04-16T02:11:30;101357.69;;;10.28;91.67
17764;BME280;22245;52.832;13.816;2023-04-16T02:14:52;101361.53;;;10.24;91.27
17764;BME280;22245;52.832;13.816;2023-04-16T02:18:17;101366.22;;;10.20;91.45
17764;BME280;22245;52.832;13.816;2023-04-16T02:21:39;101357.00;;;10.13;92.15
17764;BME280;22245;52.832;13.816;2023-04-16T02:25:02;101362.56;;;10.10;92.02
17764;BME280;22245;52.832;13.816;2023-04-16T02:28:25;101363.97;;;10.03;92.00
17764;BME280;22245;52.832;13.816;2023-04-16T02:31:47;101360.44;;;10.02;91.75
17764;BME280;22245;52.832;13.816;2023-04-16T02:35:10;101373.97;;;9.99;90.88
17764;BME280;22245;52.832;13.816;2023-04-16T02:38:32;101381.34;;;9.95;91.53
17764;BME280;22245;52.832;13.816;2023-04-16T02:41:53;101381.44;;;9.94;91.62
17764;BME280;22245;52.832;13.816;2023-04-16T02:45:16;101384.34;;;9.91;91.19
17764;BME280;22245;52.832;13.816;2023-04-16T02:48:39;101387.22;;;9.88;91.45
17764;BME280;22245;52.832;13.816;2023-04-16T02:52:00;101383.81;;;9.85;91.27
17764;BME280;22245;52.832;13.816;2023-04-16T02:55:22;101383.91;;;9.84;91.16
17764;BME280;22245;52.832;13.816;2023-04-16T02:58:44;101390.41;;;9.80;91.87
17764;BME280;22245;52.832;13.816;2023-04-16T03:02:07;101384.13;;;9.81;91.40
17764;BME280;22245;52.832;13.816;2023-04-16T03:05:29;101384.13;;;9.81;91.86
17764;BME280;22245;52.832;13.816;2023-04-16T03:08:51;101383.19;;;9.82;91.37
17764;BME280;22245;52.832;13.816;2023-04-16T03:12:13;101392.34;;;9.78;91.23
17764;BME280;22245;52.832;13.816;2023-04-16T03:15:35;101390.47;;;9.67;91.35
17764;BME280;22245;52.832;13.816;2023-04-16T03:18:58;101394.94;;;9.66;91.89
17764;BME280;22245;52.832;13.816;2023-04-16T03:22:20;101407.47;;;9.64;91.99
17764;BME280;22245;52.832;13.816;2023-04-16T03:25:42;101399.72;;;9.61;91.85
17764;BME280;22245;52.832;13.816;2023-04-16T03:29:09;101405.03;;;9.61;91.92
17764;BME280;22245;52.832;13.816;2023-04-16T03:32:31;101405.03;;;9.61;92.15
17764;BME280;22245;52.832;13.816;2023-04-16T03:35:56;101400.78;;;9.59;91.60
17764;BME280;22245;52.832;13.816;2023-04-16T03:39:21;101403.56;;;9.57;91.76
17764;BME280;22245;52.832;13.816;2023-04-16T03:42:43;101401.75;;;9.58;92.11
17764;BME280;22245;52.832;13.816;2023-04-16T03:46:05;101405.13;;;9.60;91.85
17764;BME280;22245;52.832;13.816;2023-04-16T03:49:27;101407.91;;;9.58;91.68
17764;BME280;22245;52.832;13.816;2023-04-16T03:52:53;101407.06;;;9.58;91.89
17764;BME280;22245;52.832;13.816;2023-04-16T03:56:14;101413.13;;;9.60;91.77
17764;BME280;22245;52.832;13.816;2023-04-16T03:59:37;101417.47;;;9.61;91.71
17764;BME280;22245;52.832;13.816;2023-04-16T04:02:59;101428.13;;;9.61;91.80
17764;BME280;22245;52.832;13.816;2023-04-16T04:06:21;101432.38;;;9.63;91.75
17764;BME280;22245;52.832;13.816;2023-04-16T04:09:44;101430.47;;;9.65;91.57
17764;BME280;22245;52.832;13.816;2023-04-16T04:13:08;101428.53;;;9.67;91.47
17764;BME280;22245;52.832;13.816;2023-04-16T04:16:30;101439.19;;;9.67;91.39
17764;BME280;22245;52.832;13.816;2023-04-16T04:19:52;101438.44;;;9.65;90.96
17764;BME280;22245;52.832;13.816;2023-04-16T04:23:19;101430.47;;;9.65;91.57
17764;BME280;22245;52.832;13.816;2023-04-16T04:26:43;101443.66;;;9.67;91.61
17764;BME280;22245;52.832;13.816;2023-04-16T04:30:07;101442.59;;;9.69;91.53
17764;BME280;22245;52.832;13.816;2023-04-16T04:33:30;101450.34;;;9.73;90.91
17764;BME280;22245;52.832;13.816;2023-04-16T04:36:52;101449.38;;;9.74;90.81
17764;BME280;22245;52.832;13.816;2023-04-16T04:40:14;101450.13;;;9.76;90.89
17764;BME280;22245;52.832;13.816;2023-04-16T04:43:38;101450.88;;;9.78;90.92
17764;BME280;22245;52.832;13.816;2023-04-16T04:47:00;101450.78;;;9.79;90.32
17764;BME280;22245;52.832;13.816;2023-04-16T04:50:23;101458.63;;;9.81;90.43
17764;BME280;22245;52.832;13.816;2023-04-16T04:53:44;101463.13;;;9.80;90.69
17764;BME280;22245;52.832;13.816;2023-04-16T04:57:07;101458.53;;;9.82;90.85
17764;BME280;22245;52.832;13.816;2023-04-16T05:00:31;101467.25;;;9.84;90.83
17764;BME280;22245;52.832;13.816;2023-04-16T05:03:53;101468.31;;;9.82;90.49
17764;BME280;22245;52.832;13.816;2023-04-16T05:07:15;101469.63;;;9.76;90.80
17764;BME280;22245;52.832;13.816;2023-04-16T05:10:36;101477.69;;;9.75;91.01
17764;BME280;22245;52.832;13.816;2023-04-16T05:13:58;101482.38;;;9.71;91.38
17764;BME280;22245;52.832;13.816;2023-04-16T05:17:21;101478.84;;;9.70;91.26
17764;BME280;22245;52.832;13.816;2023-04-16T05:20:43;101481.94;;;9.64;91.33
17764;BME280;22245;52.832;13.816;2023-04-16T05:24:06;101486.63;;;9.61;91.41
17764;BME280;22245;52.832;13.816;2023-04-16T05:27:27;101486.53;;;9.62;91.79
17764;BME280;22245;52.832;13.816;2023-04-16T05:30:49;101486.75;;;9.59;91.90
17764;BME280;22245;52.832;13.816;2023-04-16T05:34:12;101493.84;;;9.59;91.94
17764;BME280;22245;52.832;13.816;2023-04-16T05:37:34;101495.91;;;9.55;91.77
17764;BME280;22245;52.832;13.816;2023-04-16T05:40:57;101504.84;;;9.54;92.10
17764;BME280;22245;52.832;13.816;2023-04-16T05:44:19;101509.19;;;9.55;92.18
17764;BME280;22245;52.832;13.816;2023-04-16T05:47:40;101505.56;;;9.56;92.60
17764;BME280;22245;52.832;13.816;2023-04-16T05:51:04;101509.19;;;9.55;92.50
17764;BME280;22245;52.832;13.816;2023-04-16T05:54:26;101509.81;;;9.59;92.89
17764;BME280;22245;52.832;13.816;2023-04-16T05:57:48;101516.75;;;9.61;92.28
17764;BME280;22245;52.832;13.816;2023-04-16T06:01:10;101518.53;;;9.61;92.40
17764;BME280;22245;52.832;13.816;2023-04-16T06:04:31;101516.00;;;9.59;92.38
17764;BME280;22245;52.832;13.816;2023-04-16T06:07:56;101513.34;;;9.59;92.82
17764;BME280;22245;52.832;13.816;2023-04-16T06:11:18;101517.69;;;9.60;93.15
17764;BME280;22245;52.832;13.816;2023-04-16T06:14:40;101519.19;;;9.64;93.21
17764;BME280;22245;52.832;13.816;2023-04-16T06:18:02;101518.97;;;9.67;93.25
17764;BME280;22245;52.832;13.816;2023-04-16T06:21:24;101523.13;;;9.72;92.33
17764;BME280;22245;52.832;13.816;2023-04-16T06:24:48;101527.59;;;9.71;92.56
17764;BME280;22245;52.832;13.816;2023-04-16T06:28:10;101534.63;;;9.72;92.07
17764;BME280;22245;52.832;13.816;2023-04-16T06:31:32;101535.59;;;9.71;92.24
17764;BME280;22245;52.832;13.816;2023-04-16T06:34:53;101537.28;;;9.72;92.46
17764;BME280;22245;52.832;13.816;2023-04-16T06:38:15;101543.22;;;9.76;92.44
17764;BME280;22245;52.832;13.816;2023-04-16T06:41:39;101545.78;;;9.77;92.22
17764;BME280;22245;52.832;13.816;2023-04-16T06:45:01;101547.38;;;9.80;92.29
17764;BME280;22245;52.832;13.816;2023-04-16T06:48:23;101548.13;;;9.82;92.07
17764;BME280;22245;52.832;13.816;2023-04-16T06:51:45;101549.72;;;9.84;92.24
17764;BME280;22245;52.832;13.816;2023-04-16T06:55:07;101549.06;;;9.81;91.75
17764;BME280;22245;52.832;13.816;2023-04-16T06:58:31;101554.31;;;9.82;91.88
17764;BME280;22245;52.832;13.816;2023-04-16T07:01:53;101558.59;;;9.85;91.49
17764;BME280;22245;52.832;13.816;2023-04-16T07:05:15;101559.50;;;9.84;92.16
17764;BME280;22245;52.832;13.816;2023-04-16T07:08:37;101555.91;;;9.85;91.99
17764;BME280;22245;52.832;13.816;2023-04-16T07:11:59;101561.97;;;9.87;92.04
17764;BME280;22245;52.832;13.816;2023-04-16T07:15:23;101558.47;;;9.87;91.94
17764;BME280;22245;52.832;13.816;2023-04-16T07:18:45;101567.09;;;9.90;91.73
17764;BME280;22245;52.832;13.816;2023-04-16T07:22:07;101568.88;;;9.90;91.84
17764;BME280;22245;52.832;13.816;2023-04-16T07:25:28;101571.53;;;9.90;91.94
17764;BME280;22245;52.832;13.816;2023-04-16T07:28:50;101570.72;;;9.89;92.34
17764;BME280;22245;52.832;13.816;2023-04-16T07:32:13;101578.47;;;9.92;91.90
17764;BME280;22245;52.832;13.816;2023-04-16T07:35:35;101578.47;;;9.92;92.24
17764;BME280;22245;52.832;13.816;2023-04-16T07:38:57;101578.56;;;9.91;92.22
17764;BME280;22245;52.832;13.816;2023-04-16T07:42:18;101576.03;;;9.89;91.77
17764;BME280;22245;52.832;13.816;2023-04-16T07:45:41;101594.53;;;9.91;92.56
17764;BME280;22245;52.832;13.816;2023-04-16T07:49:04;101592.75;;;9.91;91.99
17764;BME280;22245;52.832;13.816;2023-04-16T07:52:27;101594.44;;;9.92;92.50
17764;BME280;22245;52.832;13.816;2023-04-16T07:55:48;101598.59;;;9.96;92.42
17764;BME280;22245;52.832;13.816;2023-04-16T07:59:10;101598.25;;;10.01;91.75
17764;BME280;22245;52.832;13.816;2023-04-16T08:02:43;101599.66;;;10.07;91.60
17764;BME280;22245;52.832;13.816;2023-04-16T08:06:06;101604.88;;;10.08;90.86
17764;BME280;22245;52.832;13.816;2023-04-16T08:09:29;101607.84;;;10.04;90.99
17764;BME280;22245;52.832;13.816;2023-04-16T08:12:51;101605.41;;;10.01;91.82
17764;BME280;22245;52.832;13.816;2023-04-16T08:16:12;101606.25;;;10.01;92.04
17764;BME280;22245;52.832;13.816;2023-04-16T08:19:34;101613.38;;;10.01;92.92
17764;BME280;22245;52.832;13.816;2023-04-16T08:22:57;101615.63;;;10.07;92.51
17764;BME280;22245;52.832;13.816;2023-04-16T08:26:19;101617.97;;;10.11;92.12
17764;BME280;22245;52.832;13.816;2023-04-16T08:29:40;101618.59;;;10.15;92.33
17764;BME280;22245;52.832;13.816;2023-04-16T08:33:02;101623.38;;;10.23;92.08
17764;BME280;22245;52.832;13.816;2023-04-16T08:36:24;101630.09;;;10.28;91.87
17764;BME280;22245;52.832;13.816;2023-04-16T08:39:48;101633.28;;;10.34;91.45
17764;BME280;22245;52.832;13.816;2023-04-16T08:43:11;101633.28;;;10.34;91.10
17764;BME280;22245;52.832;13.816;2023-04-16T08:46:35;101635.84;;;10.35;90.64
17764;BME280;22245;52.832;13.816;2023-04-16T08:49:57;101641.06;;;10.37;90.25
17764;BME280;22245;52.832;13.816;2023-04-16T08:53:22;101643.81;;;10.35;89.93
17764;BME280;22245;52.832;13.816;2023-04-16T08:56:50;101642.03;;;10.36;90.95
17764;BME280;22245;52.832;13.816;2023-04-16T09:00:13;101646.22;;;10.40;90.43
17764;BME280;22245;52.832;13.816;2023-04-16T09:03:35;101646.09;;;10.41;90.91
17764;BME280;22245;52.832;13.816;2023-04-16T09:06:58;101649.19;;;10.48;90.91
17764;BME280;22245;52.832;13.816;2023-04-16T09:10:20;101656.72;;;10.54;90.52
17764;BME280;22245;52.832;13.816;2023-04-16T09:13:45;101655.03;;;10.53;89.59
17764;BME280;22245;52.832;13.816;2023-04-16T09:17:07;101657.16;;;10.61;90.44
17764;BME280;22245;52.832;13.816;2023-04-16T09:20:29;101662.69;;;10.71;89.35
17764;BME280;22245;52.832;13.816;2023-04-16T09:23:52;101667.91;;;10.73;87.67
17764;BME280;22245;52.832;13.816;2023-04-16T09:27:13;101670.97;;;10.79;87.66
17764;BME280;22245;52.832;13.816;2023-04-16T09:30:37;101678.66;;;10.84;88.20
17764;BME280;22245;52.832;13.816;2023-04-16T09:34:01;101677.56;;;10.86;88.27
17764;BME280;22245;52.832;13.816;2023-04-16T09:37:23;101678.94;;;10.92;87.66
17764;BME280;22245;52.832;13.816;2023-04-16T09:40:46;101678.59;;;10.97;87.67
17764;BME280;22245;52.832;13.816;2023-04-16T09:44:07;101680.13;;;11.01;86.82
17764;BME280;22245;52.832;13.816;2023-04-16T09:47:39;101677.09;;;11.06;86.34
17764;BME280;22245;52.832;13.816;2023-04-16T09:51:01;101677.97;;;11.06;85.50
17764;BME280;22245;52.832;13.816;2023-04-16T09:54:25;101679.66;;;11.07;85.33
17764;BME280;22245;52.832;13.816;2023-04-16T09:57:47;101683.91;;;11.10;85.59
17764;BME280;22245;52.832;13.816;2023-04-16T10:01:10;101684.53;;;11.13;85.23
17764;BME280;22245;52.832;13.816;2023-04-16T10:04:44;101682.63;;;11.15;85.76
17764;BME280;22245;52.832;13.816;2023-04-16T10:08:13;101683.13;;;11.21;84.94
17764;BME280;22245;52.832;13.816;2023-04-16T10:11:34;101683.88;;;11.23;85.13
17764;BME280;22245;52.832;13.816;2023-04-16T10:14:57;101685.34;;;11.27;85.35
17764;BME280;22245;52.832;13.816;2023-04-16T10:18:19;101696.75;;;11.29;85.28
17764;BME280;22245;52.832;13.816;2023-04-16T10:21:43;101697.25;;;11.34;85.14
17764;BME280;22245;52.832;13.816;2023-04-16T10:25:06;101699.59;;;11.39;85.51
17764;BME280;22245;52.832;13.816;2023-04-16T10:28:29;101698.31;;;11.44;85.08
17764;BME280;22245;52.832;13.816;2023-04-16T10:31:52;101700.75;;;11.48;84.72
17764;BME280;22245;52.832;13.816;2023-04-16T10:35:15;101699.78;;;11.49;83.40
17764;BME280;22245;52.832;13.816;2023-04-16T10:38:46;101704.94;;;11.39;82.74
17764;BME280;22245;52.832;13.816;2023-04-16T10:42:09;101705.38;;;11.33;83.57
17764;BME280;22245;52.832;13.816;2023-04-16T10:45:36;101703.56;;;11.33;83.33
17764;BME280;22245;52.832;13.816;2023-04-16T10:49:00;101711.47;;;11.35;83.20
17764;BME280;22245;52.832;13.816;2023-04-16T10:52:22;101706.44;;;11.30;82.99
17764;BME280;22245;52.832;13.816;2023-04-16T10:56:13;101709.97;;;11.31;83.82
17764;BME280;22245;52.832;13.816;2023-04-16T10:59:36;101712.97;;;11.26;83.52
17764;BME280;22245;52.832;13.816;2023-04-16T11:02:58;101716.31;;;11.17;82.91
17764;BME280;22245;52.832;13.816;2023-04-16T11:06:23;101715.66;;;11.13;83.90
17764;BME280;22245;52.832;13.816;2023-04-16T11:09:51;101719.44;;;11.10;85.12
17764;BME280;22245;52.832;13.816;2023-04-16T11:13:14;101728.63;;;11.06;85.42
17764;BME280;22245;52.832;13.816;2023-04-16T11:16:39;101734.47;;;10.98;84.78
17764;BME280;22245;52.832;13.816;2023-04-16T11:20:02;101732.34;;;10.91;85.23
17764;BME280;22245;52.832;13.816;2023-04-16T11:23:47;101730.78;;;10.75;85.34
17764;BME280;22245;52.832;13.816;2023-04-16T11:27:11;101738.13;;;10.71;84.93
17764;BME280;22245;52.832;13.816;2023-04-16T11:30:35;101740.25;;;10.66;85.15
17764;BME280;22245;52.832;13.816;2023-04-16T11:33:57;101744.84;;;10.64;85.69
17764;BME280;22245;52.832;13.816;2023-04-16T11:37:21;101759.03;;;10.65;86.51
17764;BME280;22245;52.832;13.816;2023-04-16T11:40:52;101751.78;;;10.67;85.79
17764;BME280;22245;52.832;13.816;2023-04-16T11:44:19;101752.84;;;10.64;86.71
17764;BME280;22245;52.832;13.816;2023-04-16T11:47:47;101756.16;;;10.68;86.46
17764;BME280;22245;52.832;13.816;2023-04-16T11:51:11;101758.16;;;10.64;85.56
17764;BME280;22245;52.832;13.816;2023-04-16T11:54:33;101754.53;;;10.65;86.23
17764;BME280;22245;52.832;13.816;2023-04-16T11:57:56;101762.09;;;10.71;85.96
17764;BME280;22245;52.832;13.816;2023-04-16T12:01:19;101761.06;;;10.74;86.02
17764;BME280;22245;52.832;13.816;2023-04-16T12:04:42;101764.56;;;10.75;85.25
17764;BME280;22245;52.832;13.816;2023-04-16T12:08:06;101761.88;;;10.75;85.37
17764;BME280;22245;52.832;13.816;2023-04-16T12:11:38;101767.22;;;10.75;85.16
17764;BME280;22245;52.832;13.816;2023-04-16T12:15:00;101770.44;;;10.80;85.37
17764;BME280;22245;52.832;13.816;2023-04-16T12:22:38;101772.25;;;10.92;83.82
17764;BME280;22245;52.832;13.816;2023-04-16T12:26:06;101770.09;;;10.97;83.79
17764;BME280;22245;52.832;13.816;2023-04-16T12:29:30;101769.78;;;11.02;83.97
17764;BME280;22245;52.832;13.816;2023-04-16T12:32:52;101769.44;;;11.07;83.53
17764;BME280;22245;52.832;13.816;2023-04-16T12:36:33;101777.00;;;11.13;83.32
17764;BME280;22245;52.832;13.816;2023-04-16T12:39:56;101772.63;;;11.12;82.02
17764;BME280;22245;52.832;13.816;2023-04-16T12:43:19;101770.09;;;11.10;82.24
17764;BME280;22245;52.832;13.816;2023-04-16T12:46:41;101776.91;;;11.14;83.28
17764;BME280;22245;52.832;13.816;2023-04-16T12:50:04;101774.97;;;11.17;82.91
17764;BME280;22245;52.832;13.816;2023-04-16T12:53:26;101769.41;;;11.20;82.11
17764;BME280;22245;52.832;13.816;2023-04-16T12:56:49;101776.22;;;11.24;83.14
17764;BME280;22245;52.832;13.816;2023-04-16T13:00:12;101777.94;;;11.25;83.04
17764;BME280;22245;52.832;13.816;2023-04-16T13:03:34;101780.28;;;11.29;81.92
17764;BME280;22245;52.832;13.816;2023-04-16T13:06:56;101780.28;;;11.29;81.16
17764;BME280;22245;52.832;13.816;2023-04-16T13:10:19;101783.78;;;11.30;80.66
17764;BME280;22245;52.832;13.816;2023-04-16T13:13:43;101783.03;;;11.28;80.71
17764;BME280;22245;52.832;13.816;2023-04-16T13:17:05;101784.75;;;11.29;81.00
17764;BME280;22245;52.832;13.816;2023-04-16T13:20:27;101790.72;;;11.33;81.61
17764;BME280;22245;52.832;13.816;2023-04-16T13:23:50;101797.03;;;11.32;80.11
17764;BME280;22245;52.832;13.816;2023-04-16T13:27:13;101789.13;;;11.30;80.16
17764;BME280;22245;52.832;13.816;2023-04-16T13:30:37;101788.16;;;11.31;80.50
17764;BME280;22245;52.832;13.816;2023-04-16T13:34:00;101793.72;;;11.28;80.08
17764;BME280;22245;52.832;13.816;2023-04-16T13:37:22;101798.09;;;11.29;80.97
17764;BME280;22245;52.832;13.816;2023-04-16T13:40:44;101795.41;;;11.29;80.32
17764;BME280;22245;52.832;13.816;2023-04-16T13:44:06;101795.53;;;11.27;80.71
17764;BME280;22245;52.832;13.816;2023-04-16T13:47:29;101797.47;;;11.25;80.67
17764;BME280;22245;52.832;13.816;2023-04-16T13:50:51;101799.03;;;11.28;80.40
17764;BME280;22245;52.832;13.816;2023-04-16T13:54:13;101801.50;;;11.31;80.54
17764;BME280;22245;52.832;13.816;2023-04-16T13:57:35;101796.91;;;11.33;80.76
17764;BME280;22245;52.832;13.816;2023-04-16T14:00:56;101798.00;;;11.31;80.72
17764;BME280;22245;52.832;13.816;2023-04-16T14:04:20;101799.03;;;11.28;80.15
17764;BME280;22245;52.832;13.816;2023-04-16T14:07:41;101802.59;;;11.28;80.73
17764;BME280;22245;52.832;13.816;2023-04-16T14:11:03;101806.31;;;11.26;80.65
17764;BME280;22245;52.832;13.816;2023-04-16T14:14:26;101795.63;;;11.26;81.62
17764;BME280;22245;52.832;13.816;2023-04-16T14:17:47;101807.28;;;11.25;81.54
17764;BME280;22245;52.832;13.816;2023-04-16T14:21:12;101802.59;;;11.28;80.92
17764;BME280;22245;52.832;13.816;2023-04-16T14:24:33;101802.44;;;11.30;81.00
17764;BME280;22245;52.832;13.816;2023-04-16T14:27:55;101806.94;;;11.29;81.22
17764;BME280;22245;52.832;13.816;2023-04-16T14:31:17;101806.94;;;11.29;80.79
17764;BME280;22245;52.832;13.816;2023-04-16T14:34:40;101809.72;;;11.28;81.40
17764;BME280;22245;52.832;13.816;2023-04-16T14:38:03;101806.22;;;11.27;81.25
17764;BME280;22245;52.832;13.816;2023-04-16T14:41:25;101817.84;;;11.26;81.52
17764;BME280;22245;52.832;13.816;2023-04-16T14:44:47;101814.22;;;11.27;81.44
17764;BME280;22245;52.832;13.816;2023-04-16T14:48:08;101813.56;;;11.24;81.23
17764;BME280;22245;52.832;13.816;2023-04-16T14:51:30;101812.94;;;11.20;80.89
17764;BME280;22245;52.832;13.816;2023-04-16T14:54:54;101824.66;;;11.18;81.49
17764;BME280;22245;52.832;13.816;2023-04-16T14:58:16;101826.81;;;11.12;82.49
17764;BME280;22245;52.832;13.816;2023-04-16T15:01:38;101829.69;;;11.09;82.34
17764;BME280;22245;52.832;13.816;2023-04-16T15:05:00;101828.94;;;11.07;82.74
17764;BME280;22245;52.832;13.816;2023-04-16T15:08:22;101831.84;;;11.04;83.09
17764;BME280;22245;52.832;13.816;2023-04-16T15:11:46;101836.63;;;10.99;82.46
17764;BME280;22245;52.832;13.816;2023-04-16T15:15:09;101839.69;;;10.93;82.86
17764;BME280;22245;52.832;13.816;2023-04-16T15:18:31;101832.78;;;10.90;82.98
17764;BME280;22245;52.832;13.816;2023-04-16T15:21:53;101840.03;;;10.88;83.32
17764;BME280;22245;52.832;13.816;2023-04-16T15:25:15;101839.72;;;10.80;82.41
17764;BME280;22245;52.832;13.816;2023-04-16T15:28:38;101850.91;;;10.72;81.63
17764;BME280;22245;52.832;13.816;2023-04-16T15:32:00;101847.69;;;10.67;82.88
17764;BME280;22245;52.832;13.816;2023-04-16T15:35:21;101848.75;;;10.64;82.71
17764;BME280;22245;52.832;13.816;2023-04-16T15:38:43;101860.06;;;10.68;83.19
17764;BME280;22245;52.832;13.816;2023-04-16T15:42:05;101860.06;;;10.68;81.98
17764;BME280;22245;52.832;13.816;2023-04-16T15:45:28;101856.75;;;10.64;82.68
17764;BME280;22245;52.832;13.816;2023-04-16T15:48:50;101864.28;;;10.57;82.68
17764;BME280;22245;52.832;13.816;2023-04-16T15:52:12;101872.28;;;10.57;83.14
17764;BME280;22245;52.832;13.816;2023-04-16T15:55:34;101864.28;;;10.57;82.28
17764;BME280;22245;52.832;13.816;2023-04-16T15:58:56;101867.81;;;10.58;82.18
17764;BME280;22245;52.832;13.816;2023-04-16T16:02:19;101875.91;;;10.56;82.49
17764;BME280;22245;52.832;13.816;2023-04-16T16:05:41;101882.19;;;10.55;82.65
17764;BME280;22245;52.832;13.816;2023-04-16T16:09:02;101880.47;;;10.54;81.40
17764;BME280;22245;52.832;13.816;2023-04-16T16:12:24;101884.31;;;10.50;81.47
17764;BME280;22245;52.832;13.816;2023-04-16T16:15:46;101878.13;;;10.50;82.09
17764;BME280;22245;52.832;13.816;2023-04-16T16:19:09;101882.38;;;10.52;81.06
17764;BME280;22245;52.832;13.816;2023-04-16T16:22:31;101887.72;;;10.52;81.55
17764;BME280;22245;52.832;13.816;2023-04-16T16:25:53;101888.59;;;10.53;81.13
17764;BME280;22245;52.832;13.816;2023-04-16T16:29:15;101896.78;;;10.50;81.12
17764;BME280;22245;52.832;13.816;2023-04-16T16:32:37;101897.63;;;10.50;81.78
17764;BME280;22245;52.832;13.816;2023-04-16T16:36:01;101897.75;;;10.49;80.75
17764;BME280;22245;52.832;13.816;2023-04-16T16:39:25;101902.59;;;10.42;81.82
17764;BME280;22245;52.832;13.816;2023-04-16T16:42:47;101900.97;;;10.39;82.06
17764;BME280;22245;52.832;13.816;2023-04-16T16:46:08;101903.00;;;10.36;82.04
17764;BME280;22245;52.832;13.816;2023-04-16T16:49:30;101899.78;;;10.31;81.44
17764;BME280;22245;52.832;13.816;2023-04-16T16:52:53;101907.84;;;10.29;81.83
17764;BME280;22245;52.832;13.816;2023-04-16T16:56:15;101901.69;;;10.28;82.10
17764;BME280;22245;52.832;13.816;2023-04-16T16:59:37;101905.84;;;10.33;81.76
17764;BME280;22245;52.832;13.816;2023-04-16T17:02:59;101908.31;;;10.36;82.25
17764;BME280;22245;52.832;13.816;2023-04-16T17:06:23;101915.56;;;10.34;82.31
17764;BME280;22245;52.832;13.816;2023-04-16T17:09:47;101917.47;;;10.32;82.89
17764;BME280;22245;52.832;13.816;2023-04-16T17:13:09;101916.78;;;10.28;83.05
17764;BME280;22245;52.832;13.816;2023-04-16T17:16:32;101928.53;;;10.25;82.96
17764;BME280;22245;52.832;13.816;2023-04-16T17:19:54;101923.19;;;10.25;82.77
17764;BME280;22245;52.832;13.816;2023-04-16T17:23:16;101930.22;;;10.26;83.31
17764;BME280;22245;52.832;13.816;2023-04-16T17:26:39;101931.25;;;10.24;83.54
17764;BME280;22245;52.832;13.816;2023-04-16T17:30:02;101932.13;;;10.24;83.50
17764;BME280;22245;52.832;13.816;2023-04-16T17:33:25;101932.13;;;10.24;83.59
17764;BME280;22245;52.832;13.816;2023-04-16T17:36:47;101938.31;;;10.25;84.38